.
WxDataArchive / Data Records for 2011-11-22
2011-11-21 November 2011 2011-11-23

Data Records for Tuesday, 22 November 2011

Time	Temp	Chill	HIndex	Humid	Dewpt	 Wind 	HiWind	WindDir	Rain 	Barom 
-----	----	-----	------	-----	-----	------	------	-------	-----	----- 
00:00	38.6	38.6	38.6	87	35.1	3	6	90	0.00	30.222 
00:05	38.5	38.5	38.5	87	35.0	3	7	90	0.00	30.222 
00:10	38.5	38.5	38.5	87	35.0	3	9	90	0.00	30.222 
00:15	38.3	38.3	38.3	87	34.8	3	7	90	0.00	30.221 
00:20	38.3	38.3	38.3	88	35.1	2	6	90	0.00	30.221 
00:25	38.2	38.2	38.2	88	35.0	3	6	90	0.00	30.221 
00:30	38.2	38.2	38.2	88	35.0	2	6	90	0.00	30.216 
00:35	38.0	38.0	38.0	88	34.8	1	4	112	0.00	30.216 
00:40	37.9	37.9	37.9	88	34.7	1	5	112	0.00	30.216 
00:45	37.9	37.9	37.9	88	34.7	1	4	112	0.00	30.218 
00:50	37.8	37.8	37.8	88	34.6	1	5	112	0.00	30.218 
00:55	37.8	37.8	37.8	88	34.6	3	9	90	0.00	30.218 
01:00	37.8	37.8	37.8	89	34.9	2	6	90	0.00	30.217 
01:05	37.6	37.6	37.6	89	34.7	1	4	112	0.00	30.217 
01:10	37.6	37.6	37.6	89	34.7	1	3	112	0.00	30.217 
01:15	37.5	37.5	37.5	89	34.6	1	4	90	0.00	30.214 
01:20	37.5	37.5	37.5	89	34.6	1	6	90	0.00	30.214 
01:25	37.5	37.5	37.5	89	34.6	1	6	90	0.00	30.214 
01:30	37.5	37.5	37.5	89	34.6	1	5	68	0.00	30.214 
01:35	37.3	37.3	37.3	89	34.4	1	4	68	0.00	30.214 
01:40	37.3	37.3	37.3	90	34.6	1	3	90	0.00	30.214 
01:45	37.3	37.3	37.3	90	34.6	2	6	90	0.00	30.223 
01:50	37.3	37.3	37.3	90	34.6	2	5	68	0.00	30.223 
01:55	37.2	37.2	37.2	90	34.5	2	5	68	0.00	30.223 
02:00	37.3	37.3	37.3	90	34.6	1	5	90	0.00	30.217 
02:05	37.3	37.3	37.3	90	34.6	1	4	90	0.00	30.217 
02:10	37.5	37.5	37.5	90	34.8	0	2	90	0.00	30.217 
02:15	37.6	37.6	37.6	91	35.2	2	5	90	0.00	30.213 
02:20	37.6	37.6	37.6	91	35.2	1	6	90	0.00	30.213 
02:25	37.8	37.8	37.8	91	35.4	2	5	90	0.00	30.213 
02:30	37.9	37.9	37.9	90	35.2	2	6	90	0.00	30.209 
02:35	37.9	37.9	37.9	90	35.2	2	7	112	0.00	30.209 
02:40	37.9	37.9	37.9	90	35.2	1	5	112	0.00	30.209 
02:45	37.9	37.9	37.9	90	35.2	2	10	90	0.00	30.202 
02:50	37.9	37.9	37.9	90	35.2	1	4	90	0.00	30.202 
02:55	37.9	37.9	37.9	90	35.2	1	5	68	0.00	30.202 
03:00	37.9	37.9	37.9	90	35.2	2	7	90	0.00	30.196 
03:05	37.9	37.9	37.9	90	35.2	2	6	135	0.00	30.196 
03:10	37.9	37.9	37.9	90	35.2	1	4	90	0.00	30.196 
03:15	37.9	37.9	37.9	90	35.2	2	5	90	0.00	30.194 
03:20	37.8	34.8	37.8	90	35.1	4	9	112	0.00	30.194 
03:25	37.8	34.8	37.8	90	35.1	4	10	90	0.00	30.194 
03:30	37.6	37.6	37.6	90	34.9	2	7	90	0.00	30.182 
03:35	37.6	37.6	37.6	90	34.9	3	7	90	0.00	30.182 
03:40	37.6	37.6	37.6	91	35.2	2	10	112	0.00	30.182 
03:45	37.6	37.6	37.6	91	35.2	3	9	90	0.00	30.179 
03:50	37.6	37.6	37.6	91	35.2	2	6	68	0.00	30.179 
03:55	37.6	37.6	37.6	91	35.2	1	4	90	0.00	30.179 
04:00	37.6	37.6	37.6	91	35.2	1	6	90	0.00	30.165 
04:05	37.6	37.6	37.6	91	35.2	2	7	112	0.00	30.165 
04:10	37.6	37.6	37.6	91	35.2	1	6	90	0.00	30.165 
04:15	37.6	37.6	37.6	91	35.2	3	6	112	0.00	30.156 
04:20	37.6	37.6	37.6	91	35.2	3	9	90	0.00	30.156 
04:25	37.8	37.8	37.8	91	35.4	2	6	112	0.00	30.156 
04:30	37.8	37.8	37.8	91	35.4	3	6	90	0.00	30.150 
04:35	37.8	37.8	37.8	91	35.4	2	6	68	0.00	30.150 
04:40	37.6	37.6	37.6	91	35.2	1	6	90	0.00	30.150 
04:45	37.6	37.6	37.6	91	35.2	2	6	112	0.00	30.143 
04:50	37.6	37.6	37.6	91	35.2	2	9	90	0.00	30.143 
04:55	37.5	37.5	37.5	91	35.1	3	10	90	0.00	30.143 
05:00	37.5	37.5	37.5	91	35.1	3	13	90	0.00	30.136 
05:05	37.5	37.5	37.5	91	35.1	2	9	90	0.00	30.136 
05:10	37.6	37.6	37.6	91	35.2	3	7	90	0.00	30.136 
05:15	37.6	37.6	37.6	91	35.2	3	9	90	0.00	30.136 
05:20	37.8	34.8	37.8	91	35.4	4	10	90	0.00	30.136 
05:25	37.8	37.8	37.8	91	35.4	3	10	90	0.00	30.136 
05:30	37.8	37.8	37.8	91	35.4	3	9	90	0.00	30.138 
05:35	37.8	37.8	37.8	91	35.4	3	9	90	0.00	30.138 
05:40	37.9	37.9	37.9	91	35.5	3	7	90	0.00	30.138 
05:45	37.9	37.9	37.9	91	35.5	3	9	90	0.00	30.144 
05:50	38.0	38.0	38.0	91	35.6	2	6	90	0.00	30.144 
05:55	38.2	38.2	38.2	91	35.8	2	6	90	0.00	30.144 
06:00	38.2	38.2	38.2	91	35.8	3	9	90	0.00	30.133 
06:05	38.3	38.3	38.3	91	35.9	2	9	68	0.00	30.133 
06:10	38.3	38.3	38.3	91	35.9	3	7	112	0.00	30.133 
06:15	38.3	35.4	38.3	91	35.9	4	11	90	0.00	30.122 
06:20	38.5	38.5	38.5	91	36.1	3	7	90	0.00	30.122 
06:25	38.6	38.6	38.6	91	36.2	3	10	68	0.00	30.122 
06:30	38.8	38.8	38.8	91	36.4	3	9	90	0.00	30.113 
06:35	38.8	38.8	38.8	91	36.4	2	11	112	0.00	30.113 
06:40	38.9	38.9	38.9	91	36.5	3	9	112	0.00	30.113 
06:45	38.9	38.9	38.9	91	36.5	2	7	90	0.00	30.105 
06:50	38.9	38.9	38.9	91	36.5	3	7	90	0.00	30.105 
06:55	39.1	39.1	39.1	91	36.7	3	7	90	0.00	30.105 
07:00	39.1	36.3	39.1	91	36.7	4	10	112	0.00	30.101 
07:05	39.1	39.1	39.1	91	36.7	3	7	90	0.00	30.101 
07:10	39.2	39.2	39.2	91	36.8	2	8	90	0.00	30.101 
07:15	39.2	39.2	39.2	91	36.8	2	6	90	0.00	30.103 
07:20	39.2	36.4	39.2	91	36.8	4	10	112	0.00	30.103 
07:25	39.3	39.3	39.3	91	36.9	3	9	90	0.00	30.103 
07:30	39.5	36.7	39.5	91	37.1	4	10	90	0.00	30.109 
07:35	39.5	35.9	39.5	91	37.1	5	12	112	0.00	30.109 
07:40	39.6	36.9	39.6	91	37.2	4	15	90	0.00	30.109 
07:45	39.8	36.2	39.8	91	37.4	5	12	90	0.00	30.085 
07:50	40.1	35.9	40.1	90	37.4	6	12	112	0.00	30.085 
07:55	40.2	36.7	40.2	90	37.5	5	11	90	0.00	30.085 
08:00	40.3	37.7	40.3	90	37.6	4	10	112	0.00	30.079 
08:05	40.5	36.4	40.5	90	37.8	6	12	90	0.00	30.079 
08:10	40.6	36.5	40.6	90	37.9	6	14	90	0.00	30.079 
08:15	40.8	38.2	40.8	89	37.8	4	11	90	0.00	30.069 
08:20	40.9	37.5	40.9	89	37.9	5	12	90	0.00	30.069 
08:25	41.2	37.2	41.2	89	38.2	6	12	90	0.00	30.069 
08:30	41.5	36.4	41.5	88	38.2	8	16	90	0.00	30.074 
08:35	41.6	37.1	41.6	88	38.3	7	15	90	0.00	30.074 
08:40	41.8	36.8	41.8	87	38.2	8	14	90	0.00	30.074 
08:45	41.8	37.3	41.8	87	38.2	7	18	90	0.00	30.083 
08:50	41.9	38.0	41.9	87	38.3	6	13	90	0.00	30.083 
08:55	41.9	37.4	41.9	87	38.3	7	14	90	0.00	30.083 
09:00	42.1	37.7	42.1	87	38.5	7	16	112	0.00	30.070 
09:05	42.1	38.9	42.1	87	38.5	5	11	90	0.00	30.070 
09:10	42.2	38.4	42.2	86	38.3	6	16	90	0.00	30.070 
09:15	42.2	39.1	42.2	86	38.3	5	11	90	0.00	30.071 
09:20	42.3	39.2	42.3	86	38.4	5	13	90	0.00	30.071 
09:25	42.5	38.2	42.5	85	38.3	7	14	112	0.00	30.071 
09:30	42.5	38.7	42.5	85	38.3	6	13	90	0.00	30.052 
09:35	42.6	38.9	42.6	85	38.4	6	13	90	0.00	30.052 
09:40	42.6	38.3	42.6	85	38.4	7	15	90	0.00	30.052 
09:45	42.8	39.8	42.8	84	38.3	5	11	112	0.00	30.057 
09:50	42.9	39.2	42.9	84	38.4	6	14	90	0.00	30.057 
09:55	42.9	39.9	42.9	84	38.4	5	12	112	0.00	30.057 
10:00	43.1	38.9	43.1	84	38.6	7	15	90	0.00	30.038 
10:05	43.1	39.5	43.1	84	38.6	6	15	112	0.00	30.038 
10:10	43.2	39.0	43.2	83	38.4	7	16	112	0.00	30.038 
10:15	43.3	39.1	43.3	83	38.5	7	16	112	0.00	30.010 
10:20	43.3	39.1	43.3	84	38.8	7	13	112	0.00	30.010 
10:25	43.3	39.1	43.3	84	38.8	7	15	112	0.00	30.010 
10:30	43.3	39.1	43.3	84	38.8	7	15	112	0.00	30.006 
10:35	43.3	40.3	43.3	85	39.1	5	12	112	0.00	30.006 
10:40	43.1	40.1	43.1	86	39.2	5	12	112	0.00	30.006 
10:45	43.1	38.9	43.1	86	39.2	7	15	112	0.00	30.003 
10:50	42.9	40.7	42.9	87	39.3	4	12	112	0.00	30.003 
10:55	42.9	38.6	42.9	87	39.3	7	13	112	0.00	30.003 
11:00	43.1	39.5	43.1	87	39.5	6	14	90	0.00	29.975 
11:05	43.1	40.1	43.1	87	39.5	5	13	112	0.00	29.975 
11:10	43.1	40.1	43.1	86	39.2	5	13	112	0.00	29.975 
11:15	43.1	38.9	43.1	86	39.2	7	16	112	0.00	29.973 
11:20	43.1	38.9	43.1	86	39.2	7	12	112	0.00	29.973 
11:25	43.1	38.9	43.1	86	39.2	7	13	112	0.01	29.973 
11:30	43.1	39.5	43.1	87	39.5	6	14	112	0.00	29.961 
11:35	43.1	40.1	43.1	87	39.5	5	13	112	0.00	29.961 
11:40	43.1	39.5	43.1	87	39.5	6	13	112	0.00	29.961 
11:45	43.1	40.1	43.1	88	39.8	5	11	112	0.00	29.950 
11:50	43.1	39.5	43.1	88	39.8	6	16	112	0.01	29.950 
11:55	43.1	40.1	43.1	89	40.1	5	13	112	0.00	29.950 
12:00	43.1	43.1	43.1	89	40.1	3	8	112	0.00	29.958 
12:05	43.1	43.1	43.1	90	40.4	3	10	112	0.01	29.958 
12:10	43.1	43.1	43.1	90	40.4	2	6	112	0.01	29.958 
12:15	42.9	42.9	42.9	91	40.5	3	9	90	0.01	29.943 
12:20	42.9	42.9	42.9	91	40.5	3	12	112	0.01	29.943 
12:25	42.9	42.9	42.9	92	40.7	3	9	112	0.01	29.943 
12:30	42.9	40.7	42.9	92	40.7	4	10	112	0.01	29.922 
12:35	42.9	42.9	42.9	92	40.7	2	7	112	0.00	29.922 
12:40	42.8	42.8	42.8	92	40.6	3	10	112	0.00	29.922 
12:45	42.8	40.6	42.8	92	40.6	4	10	112	0.01	29.897 
12:50	42.8	40.6	42.8	93	40.9	4	11	112	0.00	29.897 
12:55	42.8	40.6	42.8	93	40.9	4	11	112	0.00	29.897 
13:00	42.9	42.9	42.9	93	41.0	3	8	112	0.00	29.881 
13:05	42.9	40.7	42.9	93	41.0	4	12	90	0.00	29.881 
13:10	42.8	42.8	42.8	93	40.9	3	7	112	0.00	29.881 
13:15	42.8	42.8	42.8	93	40.9	3	12	112	0.00	29.864 
13:20	42.6	40.3	42.6	93	40.7	4	14	112	0.00	29.864 
13:25	42.6	40.3	42.6	93	40.7	4	10	112	0.01	29.864 
13:30	42.6	42.6	42.6	93	40.7	3	10	112	0.00	29.848 
13:35	42.6	40.3	42.6	93	40.7	4	12	90	0.00	29.848 
13:40	42.6	40.3	42.6	94	41.0	4	11	90	0.01	29.848 
13:45	42.6	42.6	42.6	94	41.0	3	10	90	0.00	29.833 
13:50	42.6	42.6	42.6	94	41.0	3	12	90	0.00	29.833 
13:55	42.6	40.3	42.6	94	41.0	4	11	112	0.00	29.833 
14:00	42.6	40.3	42.6	94	41.0	4	10	112	0.01	29.816 
14:05	42.6	42.6	42.6	94	41.0	3	12	68	0.01	29.816 
14:10	42.8	42.8	42.8	94	41.2	3	11	112	0.01	29.816 
14:15	42.8	40.6	42.8	94	41.2	4	13	112	0.01	29.801 
14:20	42.6	40.3	42.6	94	41.0	4	10	112	0.01	29.801 
14:25	42.6	42.6	42.6	94	41.0	2	7	112	0.00	29.801 
14:30	42.6	39.5	42.6	94	41.0	5	19	90	0.02	29.784 
14:35	42.6	40.3	42.6	95	41.3	4	12	112	0.01	29.784 
14:40	42.8	42.8	42.8	95	41.5	3	7	112	0.02	29.784 
14:45	42.8	40.6	42.8	95	41.5	4	11	90	0.04	29.802 
14:50	42.8	42.8	42.8	95	41.5	3	13	90	0.03	29.802 
14:55	42.8	39.8	42.8	95	41.5	5	13	90	0.02	29.802 
15:00	42.8	42.8	42.8	95	41.5	3	11	112	0.03	29.786 
15:05	42.8	42.8	42.8	95	41.5	3	11	112	0.03	29.786 
15:10	42.8	42.8	42.8	95	41.5	3	9	90	0.03	29.786 
15:15	42.9	42.9	42.9	95	41.6	3	7	112	0.02	29.786 
15:20	42.9	40.7	42.9	95	41.6	4	13	112	0.02	29.786 
15:25	42.9	42.9	42.9	95	41.6	2	5	112	0.02	29.786 
15:30	42.9	40.7	42.9	95	41.6	4	10	112	0.03	29.755 
15:35	42.9	40.7	42.9	95	41.6	4	11	90	0.02	29.755 
15:40	42.9	40.7	42.9	95	41.6	4	11	90	0.01	29.755 
15:45	42.9	42.9	42.9	95	41.6	3	7	90	0.01	29.736 
15:50	42.8	42.8	42.8	95	41.5	3	7	112	0.01	29.736 
15:55	42.8	40.6	42.8	95	41.5	4	12	112	0.02	29.736 
16:00	42.8	40.6	42.8	95	41.5	4	11	90	0.03	29.733 
16:05	42.8	42.8	42.8	95	41.5	3	10	90	0.06	29.733 
16:10	42.8	42.8	42.8	95	41.5	3	9	112	0.04	29.733 
16:15	42.8	42.8	42.8	96	41.7	3	10	90	0.02	29.741 
16:20	42.8	42.8	42.8	95	41.5	3	9	112	0.00	29.741 
16:25	42.8	40.6	42.8	96	41.7	4	11	90	0.00	29.741 
16:30	42.8	40.6	42.8	96	41.7	4	10	90	0.01	29.737 
16:35	42.8	39.8	42.8	96	41.7	5	13	90	0.01	29.737 
16:40	42.6	38.9	42.6	96	41.5	6	18	90	0.01	29.737 
16:45	42.6	42.6	42.6	95	41.3	3	15	112	0.00	29.721 
16:50	42.6	40.3	42.6	95	41.3	4	11	112	0.01	29.721 
16:55	42.6	40.3	42.6	96	41.5	4	12	112	0.02	29.721 
17:00	42.5	39.4	42.5	95	41.2	5	16	90	0.03	29.707 
17:05	42.3	42.3	42.3	95	41.0	3	11	90	0.01	29.707 
17:10	42.3	42.3	42.3	96	41.2	3	7	22	0.00	29.707 
17:15	42.2	42.2	42.2	95	40.9	3	9	90	0.00	29.707 
17:20	42.1	42.1	42.1	95	40.8	3	11	90	0.00	29.707 
17:25	42.1	42.1	42.1	96	41.0	3	7	90	0.02	29.707 
17:30	41.9	41.9	41.9	96	40.8	3	9	90	0.01	29.705 
17:35	41.8	41.8	41.8	96	40.7	2	9	112	0.01	29.705 
17:40	41.8	39.4	41.8	95	40.5	4	10	112	0.00	29.705 
17:45	41.6	41.6	41.6	96	40.5	3	12	112	0.01	29.696 
17:50	41.6	41.6	41.6	95	40.3	3	9	112	0.00	29.696 
17:55	41.5	41.5	41.5	95	40.2	3	11	112	0.00	29.696 
18:00	41.3	41.3	41.3	95	40.0	2	9	68	0.00	29.695 
18:05	41.2	41.2	41.2	95	39.9	3	7	90	0.00	29.695 
18:10	41.1	41.1	41.1	95	39.8	3	10	45	0.01	29.695 
18:15	41.1	41.1	41.1	95	39.8	2	6	90	0.00	29.679 
18:20	40.9	40.9	40.9	95	39.6	2	6	112	0.01	29.679 
18:25	40.8	40.8	40.8	95	39.5	3	9	45	0.00	29.679 
18:30	40.6	40.6	40.6	95	39.3	3	11	112	0.00	29.682 
18:35	40.5	40.5	40.5	95	39.2	2	6	90	0.01	29.682 
18:40	40.2	40.2	40.2	95	38.9	2	6	22	0.00	29.682 
18:45	40.1	40.1	40.1	95	38.8	2	5	68	0.00	29.681 
18:50	39.9	39.9	39.9	95	38.6	3	9	135	0.01	29.681 
18:55	39.8	39.8	39.8	95	38.5	3	10	90	0.01	29.681 
19:00	39.6	39.6	39.6	95	38.3	3	9	90	0.00	29.671 
19:05	39.5	39.5	39.5	95	38.2	2	7	112	0.00	29.671 
19:10	39.3	39.3	39.3	95	38.0	2	6	68	0.00	29.671 
19:15	39.2	39.2	39.2	95	37.9	2	7	22	0.00	29.666 
19:20	39.2	39.2	39.2	95	37.9	1	6	270	0.00	29.666 
19:25	39.2	39.2	39.2	95	37.9	2	10	0	0.00	29.666 
19:30	39.2	39.2	39.2	95	37.9	2	5	112	0.00	29.677 
19:35	39.2	39.2	39.2	95	37.9	1	6	338	0.01	29.677 
19:40	39.2	39.2	39.2	95	37.9	2	9	0	0.01	29.677 
19:45	39.1	39.1	39.1	95	37.8	1	5	270	0.00	29.694 
19:50	39.1	39.1	39.1	95	37.8	1	6	45	0.00	29.694 
19:55	39.1	39.1	39.1	95	37.8	1	7	112	0.00	29.694 
20:00	39.1	39.1	39.1	95	37.8	1	4	112	0.01	29.696 
20:05	39.1	39.1	39.1	95	37.8	1	4	0	0.00	29.696 
20:10	39.1	39.1	39.1	95	37.8	1	8	0	0.00	29.696 
20:15	38.9	38.9	38.9	95	37.6	1	3	22	0.00	29.708 
20:20	38.8	38.8	38.8	95	37.5	1	6	338	0.00	29.708 
20:25	38.8	38.8	38.8	95	37.5	2	7	270	0.01	29.708 
20:30	38.6	38.6	38.6	95	37.3	2	6	338	0.00	29.723 
20:35	38.6	38.6	38.6	95	37.3	1	5	292	0.00	29.723 
20:40	38.6	38.6	38.6	95	37.3	1	6	315	0.01	29.723 
20:45	38.8	38.8	38.8	95	37.5	1	4	0	0.00	29.724 
20:50	38.8	38.8	38.8	95	37.5	1	5	270	0.00	29.724 
20:55	38.6	38.6	38.6	95	37.3	1	6	248	0.00	29.724 
21:00	38.5	38.5	38.5	95	37.2	1	5	0	0.01	29.732 
21:05	38.5	38.5	38.5	95	37.2	1	4	292	0.00	29.732 
21:10	38.3	38.3	38.3	95	37.0	1	4	292	0.00	29.732 
21:15	38.3	38.3	38.3	95	37.0	1	3	292	0.00	29.753 
21:20	38.3	38.3	38.3	95	37.0	1	5	270	0.00	29.753 
21:25	38.2	38.2	38.2	95	36.9	1	4	338	0.00	29.753 
21:30	38.2	38.2	38.2	95	36.9	1	4	338	0.00	29.766 
21:35	38.2	38.2	38.2	95	36.9	1	4	292	0.00	29.766 
21:40	38.2	38.2	38.2	95	36.9	2	7	292	0.01	29.766 
21:45	38.0	38.0	38.0	95	36.7	1	4	270	0.00	29.773 
21:50	38.0	38.0	38.0	95	36.7	2	4	315	0.00	29.773 
21:55	37.9	37.9	37.9	95	36.6	2	4	270	0.00	29.773 
22:00	37.9	37.9	37.9	95	36.6	1	5	0	0.00	29.785 
22:05	37.9	37.9	37.9	95	36.6	1	4	338	0.00	29.785 
22:10	37.8	37.8	37.8	95	36.5	2	4	270	0.01	29.785 
22:15	37.8	37.8	37.8	95	36.5	1	4	338	0.00	29.787 
22:20	37.8	37.8	37.8	95	36.5	2	7	292	0.00	29.787 
22:25	37.8	37.8	37.8	95	36.5	2	4	292	0.00	29.787 
22:30	37.8	37.8	37.8	95	36.5	1	6	315	0.00	29.787 
22:35	37.8	37.8	37.8	95	36.5	1	5	315	0.00	29.787 
22:40	37.8	37.8	37.8	95	36.5	2	5	292	0.00	29.787 
22:45	37.8	37.8	37.8	95	36.5	1	5	270	0.00	29.793 
22:50	37.8	37.8	37.8	95	36.5	1	6	315	0.00	29.793 
22:55	37.8	37.8	37.8	95	36.5	2	5	292	0.00	29.793 
23:00	37.8	37.8	37.8	95	36.5	2	5	270	0.00	29.802 
23:05	37.9	37.9	37.9	95	36.6	2	4	270	0.00	29.802 
23:10	37.9	37.9	37.9	95	36.6	2	6	315	0.00	29.802 
23:15	37.9	37.9	37.9	95	36.6	2	4	292	0.00	29.812 
23:20	38.0	38.0	38.0	94	36.4	1	3	338	0.00	29.812 
23:25	38.0	38.0	38.0	94	36.4	2	4	315	0.00	29.812 
23:30	38.0	38.0	38.0	94	36.4	3	7	292	0.00	29.819 
23:35	38.2	38.2	38.2	94	36.6	2	5	292	0.00	29.819 
23:40	38.0	38.0	38.0	94	36.4	3	7	315	0.00	29.819 
23:45	37.9	37.9	37.9	94	36.3	3	9	292	0.00	29.831 
23:50	37.8	37.8	37.8	94	36.2	3	7	292	0.00	29.831 
23:55	37.6	37.6	37.6	94	36.0	3	6	270	0.00	29.831 

CoCoRaHS
IN-AL-39
A2 Web Hosting
Creative Commons License
GoDaddy
search engine by freefind advanced

loaded 2018-11-15 18:28:05 • last modified 2010-11-18 10:43:29
Privacy PolicyDisclaimer
• wx.awcolley.com is powered by PmWiki v.2002016 •
• all content (unless otherwise noted) © 2018 A W Colley